sensor_id;sensor_type;location;lat;lon;timestamp;P1;durP1;ratioP1;P2;durP2;ratioP2
30080;SDS011;16902;50.816;12.828;2023-02-20T00:02:22;26.42;;;17.08;;
30080;SDS011;16902;50.816;12.828;2023-02-20T00:07:24;22.23;;;16.05;;
30080;SDS011;16902;50.816;12.828;2023-02-20T00:12:26;21.33;;;16.70;;
30080;SDS011;16902;50.816;12.828;2023-02-20T00:17:28;25.08;;;17.80;;
30080;SDS011;16902;50.816;12.828;2023-02-20T00:22:30;23.67;;;16.55;;
30080;SDS011;16902;50.816;12.828;2023-02-20T00:27:31;23.55;;;16.27;;
30080;SDS011;16902;50.816;12.828;2023-02-20T00:32:33;24.77;;;15.85;;
30080;SDS011;16902;50.816;12.828;2023-02-20T00:37:35;23.67;;;15.88;;
30080;SDS011;16902;50.816;12.828;2023-02-20T00:42:41;22.48;;;14.20;;
30080;SDS011;16902;50.816;12.828;2023-02-20T00:47:43;14.43;;;10.48;;
30080;SDS011;16902;50.816;12.828;2023-02-20T00:52:45;11.85;;;9.07;;
30080;SDS011;16902;50.816;12.828;2023-02-20T00:57:47;8.07;;;6.15;;
30080;SDS011;16902;50.816;12.828;2023-02-20T01:02:49;7.18;;;5.50;;
30080;SDS011;16902;50.816;12.828;2023-02-20T01:07:51;5.57;;;4.65;;
30080;SDS011;16902;50.816;12.828;2023-02-20T01:12:53;6.50;;;4.68;;
30080;SDS011;16902;50.816;12.828;2023-02-20T01:17:55;7.43;;;5.05;;
30080;SDS011;16902;50.816;12.828;2023-02-20T01:22:58;6.45;;;5.10;;
30080;SDS011;16902;50.816;12.828;2023-02-20T01:28:00;7.90;;;5.43;;
30080;SDS011;16902;50.816;12.828;2023-02-20T01:33:02;10.48;;;6.20;;
30080;SDS011;16902;50.816;12.828;2023-02-20T01:38:03;8.30;;;4.53;;
30080;SDS011;16902;50.816;12.828;2023-02-20T01:43:07;5.78;;;4.20;;
30080;SDS011;16902;50.816;12.828;2023-02-20T01:48:27;5.68;;;4.30;;
30080;SDS011;16902;50.816;12.828;2023-02-20T01:53:28;8.63;;;5.03;;
30080;SDS011;16902;50.816;12.828;2023-02-20T01:58:49;5.40;;;3.90;;
30080;SDS011;16902;50.816;12.828;2023-02-20T02:03:53;7.25;;;5.68;;
30080;SDS011;16902;50.816;12.828;2023-02-20T02:09:02;8.57;;;6.63;;
30080;SDS011;16902;50.816;12.828;2023-02-20T02:14:10;12.30;;;9.30;;
30080;SDS011;16902;50.816;12.828;2023-02-20T02:50:40;20.13;;;12.57;;
30080;SDS011;16902;50.816;12.828;2023-02-20T02:55:45;24.08;;;14.30;;
30080;SDS011;16902;50.816;12.828;2023-02-20T03:00:50;28.38;;;15.98;;
30080;SDS011;16902;50.816;12.828;2023-02-20T03:11:10;21.92;;;14.00;;
30080;SDS011;16902;50.816;12.828;2023-02-20T03:16:20;23.95;;;12.77;;
30080;SDS011;16902;50.816;12.828;2023-02-20T03:21:26;23.05;;;12.88;;
30080;SDS011;16902;50.816;12.828;2023-02-20T03:26:32;23.05;;;12.82;;
30080;SDS011;16902;50.816;12.828;2023-02-20T03:37:20;23.90;;;12.55;;
30080;SDS011;16902;50.816;12.828;2023-02-20T03:42:46;20.65;;;11.38;;
30080;SDS011;16902;50.816;12.828;2023-02-20T03:54:05;19.88;;;11.90;;
30080;SDS011;16902;50.816;12.828;2023-02-20T03:59:29;22.80;;;12.18;;
30080;SDS011;16902;50.816;12.828;2023-02-20T04:04:49;21.38;;;11.50;;
30080;SDS011;16902;50.816;12.828;2023-02-20T04:09:54;20.17;;;11.20;;
30080;SDS011;16902;50.816;12.828;2023-02-20T04:15:01;20.77;;;9.93;;
30080;SDS011;16902;50.816;12.828;2023-02-20T04:20:06;14.90;;;10.13;;
30080;SDS011;16902;50.816;12.828;2023-02-20T04:30:41;14.73;;;8.65;;
30080;SDS011;16902;50.816;12.828;2023-02-20T04:35:43;11.57;;;7.75;;
30080;SDS011;16902;50.816;12.828;2023-02-20T04:40:45;16.73;;;9.35;;
30080;SDS011;16902;50.816;12.828;2023-02-20T04:45:50;15.15;;;8.27;;
30080;SDS011;16902;50.816;12.828;2023-02-20T04:50:53;14.43;;;8.05;;
30080;SDS011;16902;50.816;12.828;2023-02-20T04:55:55;13.57;;;8.07;;
30080;SDS011;16902;50.816;12.828;2023-02-20T05:00:59;12.02;;;8.32;;
30080;SDS011;16902;50.816;12.828;2023-02-20T05:06:01;12.75;;;7.32;;
30080;SDS011;16902;50.816;12.828;2023-02-20T05:11:03;12.05;;;7.88;;
30080;SDS011;16902;50.816;12.828;2023-02-20T05:16:05;11.52;;;7.05;;
30080;SDS011;16902;50.816;12.828;2023-02-20T05:21:07;12.40;;;8.10;;
30080;SDS011;16902;50.816;12.828;2023-02-20T05:26:32;13.70;;;7.90;;
30080;SDS011;16902;50.816;12.828;2023-02-20T05:31:34;13.40;;;8.13;;
30080;SDS011;16902;50.816;12.828;2023-02-20T05:36:37;14.38;;;8.90;;
30080;SDS011;16902;50.816;12.828;2023-02-20T05:41:39;14.82;;;8.98;;
30080;SDS011;16902;50.816;12.828;2023-02-20T05:46:40;14.07;;;8.07;;
30080;SDS011;16902;50.816;12.828;2023-02-20T05:51:43;14.35;;;8.25;;
30080;SDS011;16902;50.816;12.828;2023-02-20T05:56:45;15.77;;;9.90;;
30080;SDS011;16902;50.816;12.828;2023-02-20T06:01:48;24.17;;;12.70;;
30080;SDS011;16902;50.816;12.828;2023-02-20T06:06:55;15.68;;;9.63;;
30080;SDS011;16902;50.816;12.828;2023-02-20T06:11:57;16.92;;;10.45;;
30080;SDS011;16902;50.816;12.828;2023-02-20T06:16:58;17.30;;;10.20;;
30080;SDS011;16902;50.816;12.828;2023-02-20T06:22:00;18.35;;;10.73;;
30080;SDS011;16902;50.816;12.828;2023-02-20T06:27:02;15.82;;;8.98;;
30080;SDS011;16902;50.816;12.828;2023-02-20T06:32:04;14.05;;;9.40;;
30080;SDS011;16902;50.816;12.828;2023-02-20T06:37:06;14.27;;;10.00;;
30080;SDS011;16902;50.816;12.828;2023-02-20T06:42:08;12.35;;;9.63;;
30080;SDS011;16902;50.816;12.828;2023-02-20T06:47:10;16.08;;;9.27;;
30080;SDS011;16902;50.816;12.828;2023-02-20T06:52:12;13.68;;;9.48;;
30080;SDS011;16902;50.816;12.828;2023-02-20T06:57:15;14.45;;;10.20;;
30080;SDS011;16902;50.816;12.828;2023-02-20T07:02:17;15.30;;;8.98;;
30080;SDS011;16902;50.816;12.828;2023-02-20T07:07:19;14.25;;;10.32;;
30080;SDS011;16902;50.816;12.828;2023-02-20T07:12:21;18.88;;;10.80;;
30080;SDS011;16902;50.816;12.828;2023-02-20T07:17:22;15.10;;;10.98;;
30080;SDS011;16902;50.816;12.828;2023-02-20T07:22:24;17.33;;;10.38;;
30080;SDS011;16902;50.816;12.828;2023-02-20T07:27:26;17.80;;;12.32;;
30080;SDS011;16902;50.816;12.828;2023-02-20T07:32:28;15.27;;;11.02;;
30080;SDS011;16902;50.816;12.828;2023-02-20T07:37:30;19.73;;;12.35;;
30080;SDS011;16902;50.816;12.828;2023-02-20T07:42:32;17.15;;;10.40;;
30080;SDS011;16902;50.816;12.828;2023-02-20T07:47:43;15.13;;;10.60;;
30080;SDS011;16902;50.816;12.828;2023-02-20T07:52:45;18.17;;;12.07;;
30080;SDS011;16902;50.816;12.828;2023-02-20T07:57:47;15.38;;;10.82;;
30080;SDS011;16902;50.816;12.828;2023-02-20T08:02:51;15.05;;;10.57;;
30080;SDS011;16902;50.816;12.828;2023-02-20T08:07:53;13.40;;;9.00;;
30080;SDS011;16902;50.816;12.828;2023-02-20T08:12:55;11.30;;;8.45;;
30080;SDS011;16902;50.816;12.828;2023-02-20T08:17:57;11.48;;;9.23;;
30080;SDS011;16902;50.816;12.828;2023-02-20T08:22:59;9.40;;;7.30;;
30080;SDS011;16902;50.816;12.828;2023-02-20T08:28:01;11.07;;;8.15;;
30080;SDS011;16902;50.816;12.828;2023-02-20T08:33:03;11.38;;;7.72;;
30080;SDS011;16902;50.816;12.828;2023-02-20T08:38:19;10.35;;;8.15;;
30080;SDS011;16902;50.816;12.828;2023-02-20T08:43:24;10.68;;;8.30;;
30080;SDS011;16902;50.816;12.828;2023-02-20T08:48:28;9.57;;;8.27;;
30080;SDS011;16902;50.816;12.828;2023-02-20T08:53:30;11.77;;;7.80;;
30080;SDS011;16902;50.816;12.828;2023-02-20T08:58:32;10.20;;;8.50;;
30080;SDS011;16902;50.816;12.828;2023-02-20T09:03:34;10.40;;;9.02;;
30080;SDS011;16902;50.816;12.828;2023-02-20T09:08:39;11.05;;;7.75;;
30080;SDS011;16902;50.816;12.828;2023-02-20T09:13:44;7.93;;;7.07;;
30080;SDS011;16902;50.816;12.828;2023-02-20T09:18:47;7.18;;;6.07;;
30080;SDS011;16902;50.816;12.828;2023-02-20T09:23:50;9.20;;;8.00;;
30080;SDS011;16902;50.816;12.828;2023-02-20T09:28:52;8.63;;;7.70;;
30080;SDS011;16902;50.816;12.828;2023-02-20T09:33:53;8.00;;;7.20;;
30080;SDS011;16902;50.816;12.828;2023-02-20T09:38:56;7.40;;;6.65;;
30080;SDS011;16902;50.816;12.828;2023-02-20T09:49:20;7.80;;;7.20;;
30080;SDS011;16902;50.816;12.828;2023-02-20T09:59:40;8.30;;;7.45;;
30080;SDS011;16902;50.816;12.828;2023-02-20T10:04:52;9.90;;;7.15;;
30080;SDS011;16902;50.816;12.828;2023-02-20T10:15:27;9.18;;;8.18;;
30080;SDS011;16902;50.816;12.828;2023-02-20T10:20:45;7.60;;;6.90;;
30080;SDS011;16902;50.816;12.828;2023-02-20T10:25:55;11.20;;;6.93;;
30080;SDS011;16902;50.816;12.828;2023-02-20T10:46:45;7.95;;;7.20;;
30080;SDS011;16902;50.816;12.828;2023-02-20T10:51:50;7.75;;;7.20;;
30080;SDS011;16902;50.816;12.828;2023-02-20T11:02:11;8.32;;;7.72;;
30080;SDS011;16902;50.816;12.828;2023-02-20T11:07:19;9.05;;;8.48;;
30080;SDS011;16902;50.816;12.828;2023-02-20T11:12:40;8.82;;;8.02;;
30080;SDS011;16902;50.816;12.828;2023-02-20T11:17:51;9.27;;;8.68;;
30080;SDS011;16902;50.816;12.828;2023-02-20T11:22:55;10.30;;;9.40;;
30080;SDS011;16902;50.816;12.828;2023-02-20T11:28:08;10.63;;;9.88;;
30080;SDS011;16902;50.816;12.828;2023-02-20T11:33:23;10.85;;;9.98;;
30080;SDS011;16902;50.816;12.828;2023-02-20T11:38:30;10.23;;;9.63;;
30080;SDS011;16902;50.816;12.828;2023-02-20T11:43:34;10.25;;;9.48;;
30080;SDS011;16902;50.816;12.828;2023-02-20T11:54:05;10.70;;;10.07;;
30080;SDS011;16902;50.816;12.828;2023-02-20T11:59:25;10.80;;;10.20;;
30080;SDS011;16902;50.816;12.828;2023-02-20T12:04:30;9.80;;;9.13;;
30080;SDS011;16902;50.816;12.828;2023-02-20T12:09:32;10.40;;;9.82;;
30080;SDS011;16902;50.816;12.828;2023-02-20T12:14:34;10.07;;;9.43;;
30080;SDS011;16902;50.816;12.828;2023-02-20T12:19:50;10.20;;;9.70;;
30080;SDS011;16902;50.816;12.828;2023-02-20T12:30:39;10.30;;;9.77;;
30080;SDS011;16902;50.816;12.828;2023-02-20T12:46:33;10.40;;;9.80;;
30080;SDS011;16902;50.816;12.828;2023-02-20T12:51:54;10.50;;;9.85;;
30080;SDS011;16902;50.816;12.828;2023-02-20T12:57:04;10.82;;;10.20;;
30080;SDS011;16902;50.816;12.828;2023-02-20T13:02:21;11.38;;;10.65;;
30080;SDS011;16902;50.816;12.828;2023-02-20T13:07:46;11.60;;;10.68;;
30080;SDS011;16902;50.816;12.828;2023-02-20T13:12:52;12.20;;;11.50;;
30080;SDS011;16902;50.816;12.828;2023-02-20T13:23:35;11.82;;;11.13;;
30080;SDS011;16902;50.816;12.828;2023-02-20T13:28:40;12.07;;;11.35;;
30080;SDS011;16902;50.816;12.828;2023-02-20T13:54:45;11.80;;;10.95;;
30080;SDS011;16902;50.816;12.828;2023-02-20T13:59:48;11.90;;;11.30;;
30080;SDS011;16902;50.816;12.828;2023-02-20T14:04:57;11.70;;;11.13;;
30080;SDS011;16902;50.816;12.828;2023-02-20T14:15:31;10.82;;;10.13;;
30080;SDS011;16902;50.816;12.828;2023-02-20T14:20:43;10.63;;;9.95;;
30080;SDS011;16902;50.816;12.828;2023-02-20T14:26:02;10.32;;;9.82;;
30080;SDS011;16902;50.816;12.828;2023-02-20T14:31:25;10.00;;;9.50;;
30080;SDS011;16902;50.816;12.828;2023-02-20T14:41:59;10.40;;;9.60;;
30080;SDS011;16902;50.816;12.828;2023-02-20T14:47:07;10.23;;;9.63;;
30080;SDS011;16902;50.816;12.828;2023-02-20T14:52:15;10.25;;;9.65;;
30080;SDS011;16902;50.816;12.828;2023-02-20T14:57:20;10.27;;;9.68;;
30080;SDS011;16902;50.816;12.828;2023-02-20T15:02:23;10.27;;;9.52;;
30080;SDS011;16902;50.816;12.828;2023-02-20T15:07:35;10.20;;;9.55;;
30080;SDS011;16902;50.816;12.828;2023-02-20T15:12:39;10.30;;;9.63;;
30080;SDS011;16902;50.816;12.828;2023-02-20T15:17:42;10.23;;;9.60;;
30080;SDS011;16902;50.816;12.828;2023-02-20T15:22:45;10.32;;;9.50;;
30080;SDS011;16902;50.816;12.828;2023-02-20T15:28:03;10.38;;;9.57;;
30080;SDS011;16902;50.816;12.828;2023-02-20T15:33:17;10.38;;;9.70;;
30080;SDS011;16902;50.816;12.828;2023-02-20T15:38:19;10.48;;;9.57;;
30080;SDS011;16902;50.816;12.828;2023-02-20T15:43:22;9.48;;;8.82;;
30080;SDS011;16902;50.816;12.828;2023-02-20T15:48:45;10.30;;;9.68;;
30080;SDS011;16902;50.816;12.828;2023-02-20T15:53:47;9.68;;;9.13;;
30080;SDS011;16902;50.816;12.828;2023-02-20T15:58:51;11.02;;;9.40;;
30080;SDS011;16902;50.816;12.828;2023-02-20T16:03:53;10.23;;;9.52;;
30080;SDS011;16902;50.816;12.828;2023-02-20T16:08:55;10.65;;;9.93;;
30080;SDS011;16902;50.816;12.828;2023-02-20T16:13:58;10.43;;;9.73;;
30080;SDS011;16902;50.816;12.828;2023-02-20T16:19:01;10.90;;;10.10;;
30080;SDS011;16902;50.816;12.828;2023-02-20T16:24:04;11.30;;;10.68;;
30080;SDS011;16902;50.816;12.828;2023-02-20T16:29:07;11.23;;;10.32;;
30080;SDS011;16902;50.816;12.828;2023-02-20T16:34:16;10.98;;;10.07;;
30080;SDS011;16902;50.816;12.828;2023-02-20T16:39:22;10.82;;;10.02;;
30080;SDS011;16902;50.816;12.828;2023-02-20T16:49:29;11.77;;;10.88;;
30080;SDS011;16902;50.816;12.828;2023-02-20T16:54:37;10.75;;;10.05;;
30080;SDS011;16902;50.816;12.828;2023-02-20T16:59:39;11.88;;;11.07;;
30080;SDS011;16902;50.816;12.828;2023-02-20T17:04:41;9.73;;;9.02;;
30080;SDS011;16902;50.816;12.828;2023-02-20T17:09:43;9.68;;;9.00;;
30080;SDS011;16902;50.816;12.828;2023-02-20T17:14:47;9.98;;;9.27;;
30080;SDS011;16902;50.816;12.828;2023-02-20T17:19:49;10.93;;;10.13;;
30080;SDS011;16902;50.816;12.828;2023-02-20T17:24:56;10.02;;;9.45;;
30080;SDS011;16902;50.816;12.828;2023-02-20T17:29:58;10.70;;;9.85;;
30080;SDS011;16902;50.816;12.828;2023-02-20T17:34:59;9.32;;;8.82;;
30080;SDS011;16902;50.816;12.828;2023-02-20T17:40:02;11.25;;;10.25;;
30080;SDS011;16902;50.816;12.828;2023-02-20T17:45:04;10.43;;;9.73;;
30080;SDS011;16902;50.816;12.828;2023-02-20T17:50:06;11.32;;;10.48;;
30080;SDS011;16902;50.816;12.828;2023-02-20T17:55:11;10.52;;;9.73;;
30080;SDS011;16902;50.816;12.828;2023-02-20T18:00:18;12.52;;;11.48;;
30080;SDS011;16902;50.816;12.828;2023-02-20T18:05:21;10.23;;;9.43;;
30080;SDS011;16902;50.816;12.828;2023-02-20T18:10:23;9.52;;;8.80;;
30080;SDS011;16902;50.816;12.828;2023-02-20T18:15:25;10.05;;;9.18;;
30080;SDS011;16902;50.816;12.828;2023-02-20T18:20:27;11.02;;;10.23;;
30080;SDS011;16902;50.816;12.828;2023-02-20T18:25:29;10.20;;;9.45;;
30080;SDS011;16902;50.816;12.828;2023-02-20T18:30:41;10.63;;;9.65;;
30080;SDS011;16902;50.816;12.828;2023-02-20T18:35:43;10.93;;;10.13;;
30080;SDS011;16902;50.816;12.828;2023-02-20T18:40:45;10.07;;;9.38;;
30080;SDS011;16902;50.816;12.828;2023-02-20T18:45:48;9.93;;;9.07;;
30080;SDS011;16902;50.816;12.828;2023-02-20T18:50:50;10.52;;;9.90;;
30080;SDS011;16902;50.816;12.828;2023-02-20T18:55:52;11.02;;;9.98;;
30080;SDS011;16902;50.816;12.828;2023-02-20T19:00:54;12.38;;;11.30;;
30080;SDS011;16902;50.816;12.828;2023-02-20T19:05:56;10.50;;;9.63;;
30080;SDS011;16902;50.816;12.828;2023-02-20T19:10:58;11.00;;;10.00;;
30080;SDS011;16902;50.816;12.828;2023-02-20T19:16:00;10.43;;;9.48;;
30080;SDS011;16902;50.816;12.828;2023-02-20T19:21:02;9.95;;;9.15;;
30080;SDS011;16902;50.816;12.828;2023-02-20T19:26:04;8.40;;;7.80;;
30080;SDS011;16902;50.816;12.828;2023-02-20T19:31:07;9.95;;;9.02;;
30080;SDS011;16902;50.816;12.828;2023-02-20T19:36:10;8.63;;;8.02;;
30080;SDS011;16902;50.816;12.828;2023-02-20T19:41:12;8.90;;;8.10;;
30080;SDS011;16902;50.816;12.828;2023-02-20T19:46:16;9.02;;;8.32;;
30080;SDS011;16902;50.816;12.828;2023-02-20T19:51:21;8.77;;;8.07;;
30080;SDS011;16902;50.816;12.828;2023-02-20T19:56:23;8.55;;;7.95;;
30080;SDS011;16902;50.816;12.828;2023-02-20T20:01:26;8.68;;;8.07;;
30080;SDS011;16902;50.816;12.828;2023-02-20T20:06:28;8.95;;;8.40;;
30080;SDS011;16902;50.816;12.828;2023-02-20T20:11:29;9.38;;;8.48;;
30080;SDS011;16902;50.816;12.828;2023-02-20T20:16:31;8.80;;;8.20;;
30080;SDS011;16902;50.816;12.828;2023-02-20T20:21:35;8.23;;;7.55;;
30080;SDS011;16902;50.816;12.828;2023-02-20T20:26:38;7.40;;;6.80;;
30080;SDS011;16902;50.816;12.828;2023-02-20T20:31:41;8.27;;;7.55;;
30080;SDS011;16902;50.816;12.828;2023-02-20T20:36:43;8.00;;;7.40;;
30080;SDS011;16902;50.816;12.828;2023-02-20T20:41:45;7.68;;;7.07;;
30080;SDS011;16902;50.816;12.828;2023-02-20T20:46:47;8.18;;;7.47;;
30080;SDS011;16902;50.816;12.828;2023-02-20T20:51:49;8.70;;;8.00;;
30080;SDS011;16902;50.816;12.828;2023-02-20T20:56:51;7.47;;;6.88;;
30080;SDS011;16902;50.816;12.828;2023-02-20T21:01:53;7.28;;;6.78;;
30080;SDS011;16902;50.816;12.828;2023-02-20T21:06:55;7.03;;;6.63;;
30080;SDS011;16902;50.816;12.828;2023-02-20T21:11:57;7.20;;;6.70;;
30080;SDS011;16902;50.816;12.828;2023-02-20T21:16:59;7.20;;;6.70;;
30080;SDS011;16902;50.816;12.828;2023-02-20T21:22:01;7.43;;;6.57;;
30080;SDS011;16902;50.816;12.828;2023-02-20T21:27:03;7.07;;;6.55;;
30080;SDS011;16902;50.816;12.828;2023-02-20T21:32:05;6.57;;;6.18;;
30080;SDS011;16902;50.816;12.828;2023-02-20T21:37:07;8.60;;;6.78;;
30080;SDS011;16902;50.816;12.828;2023-02-20T21:42:10;6.47;;;5.97;;
30080;SDS011;16902;50.816;12.828;2023-02-20T21:47:31;7.90;;;7.20;;
30080;SDS011;16902;50.816;12.828;2023-02-20T21:52:33;7.97;;;7.38;;
30080;SDS011;16902;50.816;12.828;2023-02-20T21:57:37;8.80;;;7.90;;
30080;SDS011;16902;50.816;12.828;2023-02-20T22:02:39;7.75;;;7.22;;
30080;SDS011;16902;50.816;12.828;2023-02-20T22:07:41;8.73;;;7.93;;
30080;SDS011;16902;50.816;12.828;2023-02-20T22:13:01;7.68;;;7.07;;
30080;SDS011;16902;50.816;12.828;2023-02-20T22:18:23;9.40;;;8.05;;
30080;SDS011;16902;50.816;12.828;2023-02-20T22:23:44;9.00;;;7.95;;
30080;SDS011;16902;50.816;12.828;2023-02-20T22:29:04;8.27;;;7.47;;
30080;SDS011;16902;50.816;12.828;2023-02-20T22:34:24;8.18;;;7.47;;
30080;SDS011;16902;50.816;12.828;2023-02-20T22:39:46;8.15;;;7.45;;
30080;SDS011;16902;50.816;12.828;2023-02-20T22:45:08;9.70;;;7.22;;
30080;SDS011;16902;50.816;12.828;2023-02-20T22:50:29;7.63;;;7.00;;
30080;SDS011;16902;50.816;12.828;2023-02-20T22:55:49;7.70;;;6.88;;
30080;SDS011;16902;50.816;12.828;2023-02-20T23:01:10;9.57;;;6.97;;
30080;SDS011;16902;50.816;12.828;2023-02-20T23:06:31;8.77;;;6.38;;
30080;SDS011;16902;50.816;12.828;2023-02-20T23:11:51;8.30;;;7.13;;
30080;SDS011;16902;50.816;12.828;2023-02-20T23:17:13;7.45;;;6.32;;
30080;SDS011;16902;50.816;12.828;2023-02-20T23:22:37;7.10;;;6.40;;
30080;SDS011;16902;50.816;12.828;2023-02-20T23:27:58;6.20;;;5.60;;
30080;SDS011;16902;50.816;12.828;2023-02-20T23:33:24;6.68;;;6.00;;
30080;SDS011;16902;50.816;12.828;2023-02-20T23:38:44;6.88;;;6.28;;
30080;SDS011;16902;50.816;12.828;2023-02-20T23:44:05;6.35;;;5.70;;
30080;SDS011;16902;50.816;12.828;2023-02-20T23:49:25;6.55;;;5.85;;
30080;SDS011;16902;50.816;12.828;2023-02-20T23:54:45;5.68;;;5.13;;
